Portada
METAR-TAF:

METAR-TAF

Aeroports :

Tasiujaq, Quebec, Canadà

latitud: 58-40N, longitud: 069-57W, altitud: 31 m

Observació

L'informe es va fer fa 1 hora i 2 minuts, a les 21:00 UTC
Vent 9 kt del Nord-Est
Temperatura -21°C
Humitat 84%
Pressió 1019 hPa
Visibilitat: 9.7 km
Escasses núvols a una alçada de 1500 ft
Cel ennuvolat a una alçada de 24000 ft
cristalls de gel, torb baixa de neu

METAR: CYTQ 282100Z 04009KT 6SM IC DRSN FEW015 BKN240 M21/M23 A3009 RMK SC1CI5 SC TR SLP198

Hora: 17:02 (22:02 UTC)

Pronòstic

L'informe es va fer fa 7 hores i 24 minuts, a les 14:38 UTC
Pronòstic vàlid del 28 a les 15 UTC al 28 a les 22 UTC
Vent 3 kt amb direcció variable
Visibilitat: 10 km
Escasses núvols a una alçada de 1500 ft
Evolucionant progressivament
l' 28 a les 15 UTC al 28 a les 17 UTC
Vent 12 kt del Nord-Est

TAF: CYTQ 281438Z 2815/2822 VRB03KT P6SM FEW015 BECMG 2815/2817 04012KT RMK NXT FCST WILL BE ISSUED AT 291445Z

Observacions i pronòstics meteorològics de més de 4000 aeroports (METAR i TAF).

Les estacions disponibles són els punts grocs i vermells al mapa.

Posi el ratolí al punt desitjat per veure el nom de l'estació.

Feu clic per veure les observacions i els pronòstics meteorològics.

Per canviar el mapa: feu clic els botons verds amb una creu de color negre per apropar; al botó verd amb un guió per allunyar la imatge; o en les fletxes verdes per a mapes adjacents.


METAR-TAF: